sensor_id;sensor_type;location;lat;lon;timestamp;P1;durP1;ratioP1;P2;durP2;ratioP2
47309;SDS011;33046;52.270;6.832;2023-04-25T00:00:38;18.83;;;4.57;;
47309;SDS011;33046;52.270;6.832;2023-04-25T00:02:45;17.10;;;4.10;;
47309;SDS011;33046;52.270;6.832;2023-04-25T00:04:52;15.02;;;3.35;;
47309;SDS011;33046;52.270;6.832;2023-04-25T00:06:59;11.75;;;3.17;;
47309;SDS011;33046;52.270;6.832;2023-04-25T00:09:06;13.77;;;3.05;;
47309;SDS011;33046;52.270;6.832;2023-04-25T00:11:13;16.55;;;4.03;;
47309;SDS011;33046;52.270;6.832;2023-04-25T00:13:19;10.23;;;2.95;;
47309;SDS011;33046;52.270;6.832;2023-04-25T00:15:27;12.07;;;3.22;;
47309;SDS011;33046;52.270;6.832;2023-04-25T00:17:34;13.10;;;2.65;;
47309;SDS011;33046;52.270;6.832;2023-04-25T00:19:41;12.68;;;3.67;;
47309;SDS011;33046;52.270;6.832;2023-04-25T00:21:48;10.00;;;2.65;;
47309;SDS011;33046;52.270;6.832;2023-04-25T00:23:55;10.70;;;3.30;;
47309;SDS011;33046;52.270;6.832;2023-04-25T00:26:02;15.80;;;3.45;;
47309;SDS011;33046;52.270;6.832;2023-04-25T00:28:09;14.23;;;3.65;;
47309;SDS011;33046;52.270;6.832;2023-04-25T00:30:16;10.80;;;2.50;;
47309;SDS011;33046;52.270;6.832;2023-04-25T00:32:24;13.48;;;4.30;;
47309;SDS011;33046;52.270;6.832;2023-04-25T00:34:31;11.45;;;3.28;;
47309;SDS011;33046;52.270;6.832;2023-04-25T00:36:38;13.98;;;3.20;;
47309;SDS011;33046;52.270;6.832;2023-04-25T00:38:44;12.40;;;3.08;;
47309;SDS011;33046;52.270;6.832;2023-04-25T00:40:51;13.88;;;3.42;;
47309;SDS011;33046;52.270;6.832;2023-04-25T00:42:58;10.32;;;2.55;;
47309;SDS011;33046;52.270;6.832;2023-04-25T00:45:06;10.63;;;3.40;;
47309;SDS011;33046;52.270;6.832;2023-04-25T00:47:15;12.65;;;3.08;;
47309;SDS011;33046;52.270;6.832;2023-04-25T00:49:23;9.77;;;3.10;;
47309;SDS011;33046;52.270;6.832;2023-04-25T00:51:30;11.70;;;3.20;;
47309;SDS011;33046;52.270;6.832;2023-04-25T00:53:39;13.13;;;3.47;;
47309;SDS011;33046;52.270;6.832;2023-04-25T00:55:46;10.65;;;2.78;;
47309;SDS011;33046;52.270;6.832;2023-04-25T00:57:53;14.13;;;3.70;;
47309;SDS011;33046;52.270;6.832;2023-04-25T01:00:00;15.57;;;3.03;;
47309;SDS011;33046;52.270;6.832;2023-04-25T01:02:08;12.65;;;3.50;;
47309;SDS011;33046;52.270;6.832;2023-04-25T01:04:14;12.55;;;3.72;;
47309;SDS011;33046;52.270;6.832;2023-04-25T01:06:23;14.70;;;4.78;;
47309;SDS011;33046;52.270;6.832;2023-04-25T01:08:30;11.27;;;3.17;;
47309;SDS011;33046;52.270;6.832;2023-04-25T01:10:37;11.88;;;2.88;;
47309;SDS011;33046;52.270;6.832;2023-04-25T01:12:44;15.35;;;4.57;;
47309;SDS011;33046;52.270;6.832;2023-04-25T01:14:51;9.88;;;2.67;;
47309;SDS011;33046;52.270;6.832;2023-04-25T01:16:59;13.52;;;3.55;;
47309;SDS011;33046;52.270;6.832;2023-04-25T01:19:07;14.82;;;3.78;;
47309;SDS011;33046;52.270;6.832;2023-04-25T01:21:17;14.13;;;4.13;;
47309;SDS011;33046;52.270;6.832;2023-04-25T01:23:26;12.77;;;3.95;;
47309;SDS011;33046;52.270;6.832;2023-04-25T01:25:33;12.27;;;2.72;;
47309;SDS011;33046;52.270;6.832;2023-04-25T01:27:40;12.80;;;2.55;;
47309;SDS011;33046;52.270;6.832;2023-04-25T01:29:47;15.00;;;3.42;;
47309;SDS011;33046;52.270;6.832;2023-04-25T01:31:54;13.48;;;3.33;;
47309;SDS011;33046;52.270;6.832;2023-04-25T01:34:01;11.88;;;4.28;;
47309;SDS011;33046;52.270;6.832;2023-04-25T01:36:08;11.75;;;3.28;;
47309;SDS011;33046;52.270;6.832;2023-04-25T01:38:16;12.60;;;3.40;;
47309;SDS011;33046;52.270;6.832;2023-04-25T01:40:23;15.32;;;2.70;;
47309;SDS011;33046;52.270;6.832;2023-04-25T01:42:30;14.65;;;2.78;;
47309;SDS011;33046;52.270;6.832;2023-04-25T01:44:37;11.27;;;3.70;;
47309;SDS011;33046;52.270;6.832;2023-04-25T01:46:44;13.57;;;3.97;;
47309;SDS011;33046;52.270;6.832;2023-04-25T01:48:51;14.23;;;2.72;;
47309;SDS011;33046;52.270;6.832;2023-04-25T01:50:58;16.50;;;3.25;;
47309;SDS011;33046;52.270;6.832;2023-04-25T01:53:05;14.38;;;3.63;;
47309;SDS011;33046;52.270;6.832;2023-04-25T01:55:13;14.35;;;2.85;;
47309;SDS011;33046;52.270;6.832;2023-04-25T01:57:37;14.75;;;3.85;;
47309;SDS011;33046;52.270;6.832;2023-04-25T01:59:44;17.40;;;3.40;;
47309;SDS011;33046;52.270;6.832;2023-04-25T02:01:59;13.95;;;3.90;;
47309;SDS011;33046;52.270;6.832;2023-04-25T02:04:09;14.23;;;3.45;;
47309;SDS011;33046;52.270;6.832;2023-04-25T02:06:18;20.05;;;5.65;;
47309;SDS011;33046;52.270;6.832;2023-04-25T02:08:26;13.18;;;2.53;;
47309;SDS011;33046;52.270;6.832;2023-04-25T02:10:36;12.82;;;3.33;;
47309;SDS011;33046;52.270;6.832;2023-04-25T02:13:03;16.42;;;4.43;;
47309;SDS011;33046;52.270;6.832;2023-04-25T02:15:42;12.45;;;3.42;;
47309;SDS011;33046;52.270;6.832;2023-04-25T02:17:54;10.30;;;2.53;;
47309;SDS011;33046;52.270;6.832;2023-04-25T02:20:01;13.95;;;2.97;;
47309;SDS011;33046;52.270;6.832;2023-04-25T02:22:07;16.55;;;4.00;;
47309;SDS011;33046;52.270;6.832;2023-04-25T02:24:14;14.05;;;3.35;;
47309;SDS011;33046;52.270;6.832;2023-04-25T02:26:22;16.00;;;3.38;;
47309;SDS011;33046;52.270;6.832;2023-04-25T02:28:30;15.70;;;4.30;;
47309;SDS011;33046;52.270;6.832;2023-04-25T02:30:37;23.52;;;4.00;;
47309;SDS011;33046;52.270;6.832;2023-04-25T02:32:44;13.18;;;3.53;;
47309;SDS011;33046;52.270;6.832;2023-04-25T02:34:51;11.85;;;2.50;;
47309;SDS011;33046;52.270;6.832;2023-04-25T02:36:58;14.25;;;3.53;;
47309;SDS011;33046;52.270;6.832;2023-04-25T02:39:05;12.60;;;2.75;;
47309;SDS011;33046;52.270;6.832;2023-04-25T02:41:13;13.18;;;4.07;;
47309;SDS011;33046;52.270;6.832;2023-04-25T02:43:21;11.02;;;2.70;;
47309;SDS011;33046;52.270;6.832;2023-04-25T02:45:30;14.48;;;4.38;;
47309;SDS011;33046;52.270;6.832;2023-04-25T02:47:37;10.98;;;1.95;;
47309;SDS011;33046;52.270;6.832;2023-04-25T02:49:44;21.67;;;4.85;;
47309;SDS011;33046;52.270;6.832;2023-04-25T02:51:51;10.75;;;3.58;;
47309;SDS011;33046;52.270;6.832;2023-04-25T02:53:58;17.83;;;5.15;;
47309;SDS011;33046;52.270;6.832;2023-04-25T02:56:06;13.82;;;3.63;;
47309;SDS011;33046;52.270;6.832;2023-04-25T02:58:12;10.00;;;3.05;;
47309;SDS011;33046;52.270;6.832;2023-04-25T03:00:27;8.90;;;3.22;;
47309;SDS011;33046;52.270;6.832;2023-04-25T03:02:34;12.02;;;2.85;;
47309;SDS011;33046;52.270;6.832;2023-04-25T03:04:41;11.13;;;3.75;;
47309;SDS011;33046;52.270;6.832;2023-04-25T03:06:48;17.10;;;3.47;;
47309;SDS011;33046;52.270;6.832;2023-04-25T03:08:54;17.30;;;4.25;;
47309;SDS011;33046;52.270;6.832;2023-04-25T03:11:01;14.07;;;3.58;;
47309;SDS011;33046;52.270;6.832;2023-04-25T03:13:08;11.07;;;4.28;;
47309;SDS011;33046;52.270;6.832;2023-04-25T03:15:15;14.55;;;4.20;;
47309;SDS011;33046;52.270;6.832;2023-04-25T03:17:23;12.38;;;2.63;;
47309;SDS011;33046;52.270;6.832;2023-04-25T03:19:30;17.25;;;3.92;;
47309;SDS011;33046;52.270;6.832;2023-04-25T03:21:37;13.65;;;4.03;;
47309;SDS011;33046;52.270;6.832;2023-04-25T03:23:44;7.00;;;2.47;;
47309;SDS011;33046;52.270;6.832;2023-04-25T03:25:51;11.52;;;2.50;;
47309;SDS011;33046;52.270;6.832;2023-04-25T03:27:57;11.82;;;2.08;;
47309;SDS011;33046;52.270;6.832;2023-04-25T03:30:05;11.90;;;3.08;;
47309;SDS011;33046;52.270;6.832;2023-04-25T03:32:14;10.35;;;1.83;;
47309;SDS011;33046;52.270;6.832;2023-04-25T03:34:22;9.93;;;2.30;;
47309;SDS011;33046;52.270;6.832;2023-04-25T03:36:29;7.70;;;2.35;;
47309;SDS011;33046;52.270;6.832;2023-04-25T03:38:36;14.98;;;2.80;;
47309;SDS011;33046;52.270;6.832;2023-04-25T03:40:45;11.27;;;2.67;;
47309;SDS011;33046;52.270;6.832;2023-04-25T03:43:10;7.05;;;2.33;;
47309;SDS011;33046;52.270;6.832;2023-04-25T03:45:22;15.10;;;2.30;;
47309;SDS011;33046;52.270;6.832;2023-04-25T03:47:28;6.15;;;2.38;;
47309;SDS011;33046;52.270;6.832;2023-04-25T03:49:38;10.55;;;2.50;;
47309;SDS011;33046;52.270;6.832;2023-04-25T03:51:45;14.23;;;2.95;;
47309;SDS011;33046;52.270;6.832;2023-04-25T03:53:53;9.05;;;2.55;;
47309;SDS011;33046;52.270;6.832;2023-04-25T03:56:18;11.48;;;1.98;;
47309;SDS011;33046;52.270;6.832;2023-04-25T03:58:29;14.35;;;2.35;;
47309;SDS011;33046;52.270;6.832;2023-04-25T04:00:36;9.48;;;2.55;;
47309;SDS011;33046;52.270;6.832;2023-04-25T04:02:43;11.25;;;1.73;;
47309;SDS011;33046;52.270;6.832;2023-04-25T04:04:51;8.38;;;2.50;;
47309;SDS011;33046;52.270;6.832;2023-04-25T04:06:59;10.50;;;2.60;;
47309;SDS011;33046;52.270;6.832;2023-04-25T04:09:10;10.13;;;2.67;;
47309;SDS011;33046;52.270;6.832;2023-04-25T04:11:18;8.35;;;2.28;;
47309;SDS011;33046;52.270;6.832;2023-04-25T04:13:25;11.27;;;3.20;;
47309;SDS011;33046;52.270;6.832;2023-04-25T04:15:32;12.93;;;2.63;;
47309;SDS011;33046;52.270;6.832;2023-04-25T04:17:38;10.10;;;2.65;;
47309;SDS011;33046;52.270;6.832;2023-04-25T04:19:47;9.18;;;2.47;;
47309;SDS011;33046;52.270;6.832;2023-04-25T04:21:59;7.78;;;2.15;;
47309;SDS011;33046;52.270;6.832;2023-04-25T04:24:05;8.98;;;3.33;;
47309;SDS011;33046;52.270;6.832;2023-04-25T04:26:25;12.77;;;2.53;;
47309;SDS011;33046;52.270;6.832;2023-04-25T04:28:42;6.90;;;2.03;;
47309;SDS011;33046;52.270;6.832;2023-04-25T04:31:12;7.07;;;1.65;;
47309;SDS011;33046;52.270;6.832;2023-04-25T04:33:19;11.80;;;2.42;;
47309;SDS011;33046;52.270;6.832;2023-04-25T04:35:33;10.70;;;2.28;;
47309;SDS011;33046;52.270;6.832;2023-04-25T04:37:41;7.80;;;1.83;;
47309;SDS011;33046;52.270;6.832;2023-04-25T04:39:50;12.85;;;2.50;;
47309;SDS011;33046;52.270;6.832;2023-04-25T04:42:08;11.10;;;2.97;;
47309;SDS011;33046;52.270;6.832;2023-04-25T04:44:23;7.43;;;2.25;;
47309;SDS011;33046;52.270;6.832;2023-04-25T04:46:53;10.48;;;2.03;;
47309;SDS011;33046;52.270;6.832;2023-04-25T04:49:13;9.25;;;2.38;;
47309;SDS011;33046;52.270;6.832;2023-04-25T04:51:42;10.65;;;2.40;;
47309;SDS011;33046;52.270;6.832;2023-04-25T04:54:09;11.65;;;3.83;;
47309;SDS011;33046;52.270;6.832;2023-04-25T04:56:34;9.55;;;2.42;;
47309;SDS011;33046;52.270;6.832;2023-04-25T04:58:56;10.32;;;2.00;;
47309;SDS011;33046;52.270;6.832;2023-04-25T05:01:09;10.90;;;2.13;;
47309;SDS011;33046;52.270;6.832;2023-04-25T05:03:54;13.75;;;2.60;;
47309;SDS011;33046;52.270;6.832;2023-04-25T05:06:25;10.40;;;2.33;;
47309;SDS011;33046;52.270;6.832;2023-04-25T05:08:51;14.02;;;4.15;;
47309;SDS011;33046;52.270;6.832;2023-04-25T05:11:32;8.93;;;1.63;;
47309;SDS011;33046;52.270;6.832;2023-04-25T05:14:00;12.00;;;3.15;;
47309;SDS011;33046;52.270;6.832;2023-04-25T05:16:28;13.93;;;4.18;;
47309;SDS011;33046;52.270;6.832;2023-04-25T05:18:49;11.15;;;2.40;;
47309;SDS011;33046;52.270;6.832;2023-04-25T05:21:09;5.90;;;2.17;;
47309;SDS011;33046;52.270;6.832;2023-04-25T05:23:33;9.70;;;2.53;;
47309;SDS011;33046;52.270;6.832;2023-04-25T05:26:08;10.43;;;2.55;;
47309;SDS011;33046;52.270;6.832;2023-04-25T05:28:25;8.23;;;2.08;;
47309;SDS011;33046;52.270;6.832;2023-04-25T05:30:38;11.65;;;1.88;;
47309;SDS011;33046;52.270;6.832;2023-04-25T05:32:50;9.48;;;2.47;;
47309;SDS011;33046;52.270;6.832;2023-04-25T05:34:57;9.20;;;3.03;;
47309;SDS011;33046;52.270;6.832;2023-04-25T05:37:07;7.00;;;1.83;;
47309;SDS011;33046;52.270;6.832;2023-04-25T05:39:24;10.93;;;2.55;;
47309;SDS011;33046;52.270;6.832;2023-04-25T05:41:50;7.63;;;2.13;;
47309;SDS011;33046;52.270;6.832;2023-04-25T05:44:17;9.30;;;1.98;;
47309;SDS011;33046;52.270;6.832;2023-04-25T05:46:44;8.57;;;2.47;;
47309;SDS011;33046;52.270;6.832;2023-04-25T05:48:53;15.50;;;3.13;;
47309;SDS011;33046;52.270;6.832;2023-04-25T05:51:20;6.28;;;1.83;;
47309;SDS011;33046;52.270;6.832;2023-04-25T05:53:39;4.55;;;1.73;;
47309;SDS011;33046;52.270;6.832;2023-04-25T05:55:46;8.70;;;1.60;;
47309;SDS011;33046;52.270;6.832;2023-04-25T05:58:00;7.40;;;2.72;;
47309;SDS011;33046;52.270;6.832;2023-04-25T06:00:09;7.72;;;2.58;;
47309;SDS011;33046;52.270;6.832;2023-04-25T06:02:18;9.80;;;1.92;;
47309;SDS011;33046;52.270;6.832;2023-04-25T06:04:27;8.45;;;2.58;;
47309;SDS011;33046;52.270;6.832;2023-04-25T06:06:34;5.75;;;1.48;;
47309;SDS011;33046;52.270;6.832;2023-04-25T06:08:40;12.85;;;2.83;;
47309;SDS011;33046;52.270;6.832;2023-04-25T06:10:50;7.43;;;1.27;;
47309;SDS011;33046;52.270;6.832;2023-04-25T06:12:57;11.50;;;2.75;;
47309;SDS011;33046;52.270;6.832;2023-04-25T06:15:05;7.20;;;2.03;;
47309;SDS011;33046;52.270;6.832;2023-04-25T06:17:20;8.15;;;1.90;;
47309;SDS011;33046;52.270;6.832;2023-04-25T06:19:28;11.20;;;2.22;;
47309;SDS011;33046;52.270;6.832;2023-04-25T06:21:36;9.75;;;2.60;;
47309;SDS011;33046;52.270;6.832;2023-04-25T06:23:43;9.00;;;2.85;;
47309;SDS011;33046;52.270;6.832;2023-04-25T06:25:51;14.73;;;3.38;;
47309;SDS011;33046;52.270;6.832;2023-04-25T06:27:59;6.95;;;1.55;;
47309;SDS011;33046;52.270;6.832;2023-04-25T06:30:07;9.27;;;1.33;;
47309;SDS011;33046;52.270;6.832;2023-04-25T06:32:14;12.65;;;1.88;;
47309;SDS011;33046;52.270;6.832;2023-04-25T06:34:22;7.18;;;1.65;;
47309;SDS011;33046;52.270;6.832;2023-04-25T06:36:29;8.68;;;2.33;;
47309;SDS011;33046;52.270;6.832;2023-04-25T06:38:42;6.07;;;1.17;;
47309;SDS011;33046;52.270;6.832;2023-04-25T06:40:50;7.25;;;1.42;;
47309;SDS011;33046;52.270;6.832;2023-04-25T06:42:58;9.15;;;1.55;;
47309;SDS011;33046;52.270;6.832;2023-04-25T06:45:16;8.57;;;1.70;;
47309;SDS011;33046;52.270;6.832;2023-04-25T06:47:23;4.70;;;0.90;;
47309;SDS011;33046;52.270;6.832;2023-04-25T06:49:31;11.45;;;1.83;;
47309;SDS011;33046;52.270;6.832;2023-04-25T06:51:39;11.70;;;1.60;;
47309;SDS011;33046;52.270;6.832;2023-04-25T06:53:47;7.03;;;1.60;;
47309;SDS011;33046;52.270;6.832;2023-04-25T06:56:03;9.13;;;2.20;;
47309;SDS011;33046;52.270;6.832;2023-04-25T06:58:23;6.60;;;1.30;;
47309;SDS011;33046;52.270;6.832;2023-04-25T07:00:47;6.88;;;1.50;;
47309;SDS011;33046;52.270;6.832;2023-04-25T07:02:55;8.57;;;2.55;;
47309;SDS011;33046;52.270;6.832;2023-04-25T07:05:04;8.50;;;1.55;;
47309;SDS011;33046;52.270;6.832;2023-04-25T07:07:11;8.73;;;2.42;;
47309;SDS011;33046;52.270;6.832;2023-04-25T07:09:31;6.53;;;1.30;;
47309;SDS011;33046;52.270;6.832;2023-04-25T07:11:38;10.10;;;2.30;;
47309;SDS011;33046;52.270;6.832;2023-04-25T07:13:45;5.30;;;1.73;;
47309;SDS011;33046;52.270;6.832;2023-04-25T07:15:51;9.93;;;1.95;;
47309;SDS011;33046;52.270;6.832;2023-04-25T07:18:00;7.20;;;1.95;;
47309;SDS011;33046;52.270;6.832;2023-04-25T07:20:09;7.80;;;1.67;;
47309;SDS011;33046;52.270;6.832;2023-04-25T07:22:16;7.00;;;1.33;;
47309;SDS011;33046;52.270;6.832;2023-04-25T07:24:23;4.78;;;1.45;;
47309;SDS011;33046;52.270;6.832;2023-04-25T07:26:32;5.88;;;1.52;;
47309;SDS011;33046;52.270;6.832;2023-04-25T07:28:58;7.57;;;1.92;;
47309;SDS011;33046;52.270;6.832;2023-04-25T07:31:05;10.27;;;2.22;;
47309;SDS011;33046;52.270;6.832;2023-04-25T07:33:12;8.75;;;1.60;;
47309;SDS011;33046;52.270;6.832;2023-04-25T07:35:20;5.90;;;1.10;;
47309;SDS011;33046;52.270;6.832;2023-04-25T07:37:27;6.38;;;1.10;;
47309;SDS011;33046;52.270;6.832;2023-04-25T07:39:41;8.85;;;1.33;;
47309;SDS011;33046;52.270;6.832;2023-04-25T07:41:49;7.90;;;1.90;;
47309;SDS011;33046;52.270;6.832;2023-04-25T07:46:10;12.40;;;2.55;;
47309;SDS011;33046;52.270;6.832;2023-04-25T07:48:18;5.00;;;1.35;;
47309;SDS011;33046;52.270;6.832;2023-04-25T07:50:27;7.95;;;1.70;;
47309;SDS011;33046;52.270;6.832;2023-04-25T07:52:34;9.13;;;0.90;;
47309;SDS011;33046;52.270;6.832;2023-04-25T07:54:51;7.40;;;1.88;;
47309;SDS011;33046;52.270;6.832;2023-04-25T07:57:04;6.85;;;1.23;;
47309;SDS011;33046;52.270;6.832;2023-04-25T07:59:12;8.05;;;1.42;;
47309;SDS011;33046;52.270;6.832;2023-04-25T08:01:21;4.97;;;1.45;;
47309;SDS011;33046;52.270;6.832;2023-04-25T08:03:40;7.20;;;2.40;;
47309;SDS011;33046;52.270;6.832;2023-04-25T08:05:55;3.53;;;0.57;;
47309;SDS011;33046;52.270;6.832;2023-04-25T08:08:04;2.42;;;0.68;;
47309;SDS011;33046;52.270;6.832;2023-04-25T08:10:11;3.80;;;1.00;;
47309;SDS011;33046;52.270;6.832;2023-04-25T08:12:18;3.80;;;0.60;;
47309;SDS011;33046;52.270;6.832;2023-04-25T08:14:26;3.47;;;0.65;;
47309;SDS011;33046;52.270;6.832;2023-04-25T08:16:33;2.08;;;0.47;;
47309;SDS011;33046;52.270;6.832;2023-04-25T08:18:40;5.15;;;0.70;;
47309;SDS011;33046;52.270;6.832;2023-04-25T08:20:48;4.75;;;0.70;;
47309;SDS011;33046;52.270;6.832;2023-04-25T08:22:56;6.70;;;0.82;;
47309;SDS011;33046;52.270;6.832;2023-04-25T08:25:10;6.00;;;1.13;;
47309;SDS011;33046;52.270;6.832;2023-04-25T08:27:18;4.80;;;0.80;;
47309;SDS011;33046;52.270;6.832;2023-04-25T08:29:25;7.40;;;1.65;;
47309;SDS011;33046;52.270;6.832;2023-04-25T08:31:32;6.60;;;0.80;;
47309;SDS011;33046;52.270;6.832;2023-04-25T08:33:41;3.78;;;0.95;;
47309;SDS011;33046;52.270;6.832;2023-04-25T08:36:11;5.47;;;0.75;;
47309;SDS011;33046;52.270;6.832;2023-04-25T08:38:19;5.22;;;1.48;;
47309;SDS011;33046;52.270;6.832;2023-04-25T08:40:27;4.28;;;1.48;;
47309;SDS011;33046;52.270;6.832;2023-04-25T08:42:39;6.40;;;0.70;;
47309;SDS011;33046;52.270;6.832;2023-04-25T08:44:48;5.93;;;0.85;;
47309;SDS011;33046;52.270;6.832;2023-04-25T08:46:55;7.93;;;2.17;;
47309;SDS011;33046;52.270;6.832;2023-04-25T08:49:07;8.13;;;1.30;;
47309;SDS011;33046;52.270;6.832;2023-04-25T08:51:15;7.97;;;0.80;;
47309;SDS011;33046;52.270;6.832;2023-04-25T08:53:30;5.38;;;1.45;;
47309;SDS011;33046;52.270;6.832;2023-04-25T08:55:40;7.03;;;1.15;;
47309;SDS011;33046;52.270;6.832;2023-04-25T08:57:49;4.97;;;1.20;;
47309;SDS011;33046;52.270;6.832;2023-04-25T08:59:57;5.40;;;1.10;;
47309;SDS011;33046;52.270;6.832;2023-04-25T09:02:04;6.63;;;1.27;;
47309;SDS011;33046;52.270;6.832;2023-04-25T09:04:11;6.25;;;1.50;;
47309;SDS011;33046;52.270;6.832;2023-04-25T09:06:19;3.67;;;0.90;;
47309;SDS011;33046;52.270;6.832;2023-04-25T09:08:28;3.38;;;1.33;;
47309;SDS011;33046;52.270;6.832;2023-04-25T09:10:37;4.22;;;1.10;;
47309;SDS011;33046;52.270;6.832;2023-04-25T09:12:45;4.75;;;1.10;;
47309;SDS011;33046;52.270;6.832;2023-04-25T09:15:10;4.55;;;0.90;;
47309;SDS011;33046;52.270;6.832;2023-04-25T09:18:00;7.20;;;1.10;;
47309;SDS011;33046;52.270;6.832;2023-04-25T09:20:12;6.82;;;1.38;;
47309;SDS011;33046;52.270;6.832;2023-04-25T09:22:19;7.10;;;0.95;;
47309;SDS011;33046;52.270;6.832;2023-04-25T09:24:31;4.90;;;1.10;;
47309;SDS011;33046;52.270;6.832;2023-04-25T09:26:43;9.32;;;1.90;;
47309;SDS011;33046;52.270;6.832;2023-04-25T09:28:49;4.10;;;1.10;;
47309;SDS011;33046;52.270;6.832;2023-04-25T09:31:11;6.90;;;1.10;;
47309;SDS011;33046;52.270;6.832;2023-04-25T09:33:26;9.30;;;1.33;;
47309;SDS011;33046;52.270;6.832;2023-04-25T09:35:35;7.68;;;0.98;;
47309;SDS011;33046;52.270;6.832;2023-04-25T09:37:43;4.22;;;0.95;;
47309;SDS011;33046;52.270;6.832;2023-04-25T09:40:21;4.15;;;1.08;;
47309;SDS011;33046;52.270;6.832;2023-04-25T09:42:41;5.93;;;1.00;;
47309;SDS011;33046;52.270;6.832;2023-04-25T09:44:48;5.35;;;0.70;;
47309;SDS011;33046;52.270;6.832;2023-04-25T09:46:55;7.70;;;1.55;;
47309;SDS011;33046;52.270;6.832;2023-04-25T09:49:07;5.97;;;1.15;;
47309;SDS011;33046;52.270;6.832;2023-04-25T09:51:24;3.92;;;1.05;;
47309;SDS011;33046;52.270;6.832;2023-04-25T09:53:32;4.32;;;0.70;;
47309;SDS011;33046;52.270;6.832;2023-04-25T09:55:52;3.10;;;0.70;;
47309;SDS011;33046;52.270;6.832;2023-04-25T09:58:03;4.25;;;0.57;;
47309;SDS011;33046;52.270;6.832;2023-04-25T10:00:15;4.03;;;0.70;;
47309;SDS011;33046;52.270;6.832;2023-04-25T10:02:23;6.15;;;0.55;;
47309;SDS011;33046;52.270;6.832;2023-04-25T10:04:34;2.65;;;0.60;;
47309;SDS011;33046;52.270;6.832;2023-04-25T10:06:56;2.63;;;0.40;;
47309;SDS011;33046;52.270;6.832;2023-04-25T10:09:04;4.03;;;0.70;;
47309;SDS011;33046;52.270;6.832;2023-04-25T10:11:11;2.42;;;0.88;;
47309;SDS011;33046;52.270;6.832;2023-04-25T10:13:21;1.45;;;0.60;;
47309;SDS011;33046;52.270;6.832;2023-04-25T10:15:29;6.65;;;1.05;;
47309;SDS011;33046;52.270;6.832;2023-04-25T10:17:36;3.25;;;0.90;;
47309;SDS011;33046;52.270;6.832;2023-04-25T10:19:44;2.80;;;0.80;;
47309;SDS011;33046;52.270;6.832;2023-04-25T10:21:52;4.78;;;1.25;;
47309;SDS011;33046;52.270;6.832;2023-04-25T10:24:01;5.88;;;0.75;;
47309;SDS011;33046;52.270;6.832;2023-04-25T10:26:09;5.97;;;0.50;;
47309;SDS011;33046;52.270;6.832;2023-04-25T10:28:16;6.65;;;0.65;;
47309;SDS011;33046;52.270;6.832;2023-04-25T10:30:24;6.03;;;1.08;;
47309;SDS011;33046;52.270;6.832;2023-04-25T10:32:31;3.15;;;0.82;;
47309;SDS011;33046;52.270;6.832;2023-04-25T10:34:39;3.28;;;1.13;;
47309;SDS011;33046;52.270;6.832;2023-04-25T10:36:49;3.22;;;0.95;;
47309;SDS011;33046;52.270;6.832;2023-04-25T10:38:58;3.80;;;0.80;;
47309;SDS011;33046;52.270;6.832;2023-04-25T10:41:10;8.18;;;1.15;;
47309;SDS011;33046;52.270;6.832;2023-04-25T10:45:52;7.50;;;1.02;;
47309;SDS011;33046;52.270;6.832;2023-04-25T10:47:59;8.55;;;1.05;;
47309;SDS011;33046;52.270;6.832;2023-04-25T10:50:07;5.55;;;1.08;;
47309;SDS011;33046;52.270;6.832;2023-04-25T10:52:18;3.55;;;1.00;;
47309;SDS011;33046;52.270;6.832;2023-04-25T10:54:31;4.07;;;0.82;;
47309;SDS011;33046;52.270;6.832;2023-04-25T10:56:38;2.97;;;0.95;;
47309;SDS011;33046;52.270;6.832;2023-04-25T10:58:48;2.75;;;0.68;;
47309;SDS011;33046;52.270;6.832;2023-04-25T11:00:56;6.70;;;1.25;;
47309;SDS011;33046;52.270;6.832;2023-04-25T11:03:03;3.95;;;0.80;;
47309;SDS011;33046;52.270;6.832;2023-04-25T11:05:10;4.57;;;1.23;;
47309;SDS011;33046;52.270;6.832;2023-04-25T11:07:23;4.68;;;0.75;;
47309;SDS011;33046;52.270;6.832;2023-04-25T11:09:38;4.68;;;0.98;;
47309;SDS011;33046;52.270;6.832;2023-04-25T11:11:53;4.30;;;0.57;;
47309;SDS011;33046;52.270;6.832;2023-04-25T11:14:00;1.95;;;1.00;;
47309;SDS011;33046;52.270;6.832;2023-04-25T11:16:08;3.70;;;0.70;;
47309;SDS011;33046;52.270;6.832;2023-04-25T11:18:17;4.57;;;0.52;;
47309;SDS011;33046;52.270;6.832;2023-04-25T11:20:25;1.52;;;0.50;;
47309;SDS011;33046;52.270;6.832;2023-04-25T11:22:32;3.13;;;0.95;;
47309;SDS011;33046;52.270;6.832;2023-04-25T11:24:40;4.78;;;0.95;;
47309;SDS011;33046;52.270;6.832;2023-04-25T11:26:48;2.65;;;0.77;;
47309;SDS011;33046;52.270;6.832;2023-04-25T11:28:59;2.15;;;0.40;;
47309;SDS011;33046;52.270;6.832;2023-04-25T11:31:05;2.42;;;0.47;;
47309;SDS011;33046;52.270;6.832;2023-04-25T11:33:14;5.20;;;0.77;;
47309;SDS011;33046;52.270;6.832;2023-04-25T11:35:20;1.48;;;0.40;;
47309;SDS011;33046;52.270;6.832;2023-04-25T11:37:28;3.30;;;0.68;;
47309;SDS011;33046;52.270;6.832;2023-04-25T11:39:34;3.15;;;0.60;;
47309;SDS011;33046;52.270;6.832;2023-04-25T11:41:41;4.15;;;1.17;;
47309;SDS011;33046;52.270;6.832;2023-04-25T11:43:48;7.30;;;0.77;;
47309;SDS011;33046;52.270;6.832;2023-04-25T11:45:55;4.13;;;0.73;;
47309;SDS011;33046;52.270;6.832;2023-04-25T11:48:03;4.00;;;0.90;;
47309;SDS011;33046;52.270;6.832;2023-04-25T11:50:10;3.35;;;0.60;;
47309;SDS011;33046;52.270;6.832;2023-04-25T11:52:17;9.73;;;1.40;;
47309;SDS011;33046;52.270;6.832;2023-04-25T11:54:24;3.30;;;0.60;;
47309;SDS011;33046;52.270;6.832;2023-04-25T11:56:31;5.72;;;0.90;;
47309;SDS011;33046;52.270;6.832;2023-04-25T11:58:56;2.33;;;0.63;;
47309;SDS011;33046;52.270;6.832;2023-04-25T12:01:03;2.65;;;0.50;;
47309;SDS011;33046;52.270;6.832;2023-04-25T12:03:11;7.13;;;1.40;;
47309;SDS011;33046;52.270;6.832;2023-04-25T12:05:18;2.65;;;0.75;;
47309;SDS011;33046;52.270;6.832;2023-04-25T12:07:36;3.05;;;0.77;;
47309;SDS011;33046;52.270;6.832;2023-04-25T12:09:43;4.95;;;1.20;;
47309;SDS011;33046;52.270;6.832;2023-04-25T12:11:52;5.63;;;0.60;;
47309;SDS011;33046;52.270;6.832;2023-04-25T12:14:03;5.20;;;0.63;;
47309;SDS011;33046;52.270;6.832;2023-04-25T12:16:10;1.73;;;0.57;;
47309;SDS011;33046;52.270;6.832;2023-04-25T12:18:20;4.45;;;0.88;;
47309;SDS011;33046;52.270;6.832;2023-04-25T12:20:27;3.72;;;0.93;;
47309;SDS011;33046;52.270;6.832;2023-04-25T12:22:33;1.73;;;0.40;;
47309;SDS011;33046;52.270;6.832;2023-04-25T12:24:44;2.78;;;0.68;;
47309;SDS011;33046;52.270;6.832;2023-04-25T12:26:52;3.90;;;0.82;;
47309;SDS011;33046;52.270;6.832;2023-04-25T12:28:59;4.00;;;0.90;;
47309;SDS011;33046;52.270;6.832;2023-04-25T12:31:06;9.68;;;1.42;;
47309;SDS011;33046;52.270;6.832;2023-04-25T12:33:13;2.55;;;0.85;;
47309;SDS011;33046;52.270;6.832;2023-04-25T12:35:21;1.77;;;0.40;;
47309;SDS011;33046;52.270;6.832;2023-04-25T12:37:28;2.95;;;0.55;;
47309;SDS011;33046;52.270;6.832;2023-04-25T12:39:35;4.43;;;0.80;;
47309;SDS011;33046;52.270;6.832;2023-04-25T12:41:42;4.25;;;0.85;;
47309;SDS011;33046;52.270;6.832;2023-04-25T12:43:49;3.67;;;0.93;;
47309;SDS011;33046;52.270;6.832;2023-04-25T12:45:56;7.88;;;1.45;;
47309;SDS011;33046;52.270;6.832;2023-04-25T12:48:03;2.92;;;0.75;;
47309;SDS011;33046;52.270;6.832;2023-04-25T12:50:10;3.03;;;1.00;;
47309;SDS011;33046;52.270;6.832;2023-04-25T12:52:18;3.25;;;0.93;;
47309;SDS011;33046;52.270;6.832;2023-04-25T12:54:25;6.38;;;1.27;;
47309;SDS011;33046;52.270;6.832;2023-04-25T12:56:31;8.43;;;1.33;;
47309;SDS011;33046;52.270;6.832;2023-04-25T12:58:38;3.97;;;1.02;;
47309;SDS011;33046;52.270;6.832;2023-04-25T13:00:45;4.78;;;1.00;;
47309;SDS011;33046;52.270;6.832;2023-04-25T13:02:52;5.35;;;1.20;;
47309;SDS011;33046;52.270;6.832;2023-04-25T13:04:59;4.20;;;0.75;;
47309;SDS011;33046;52.270;6.832;2023-04-25T13:07:06;5.22;;;1.30;;